Time;durP1;ratioP1;P1;durP2;ratioP2;P2;SDS_P1;SDS_P2;PMS_P1;PMS_P2;Temp;Humidity;BMP_temperature;BMP_pressure;BME280_temperature;BME280_humidity;BME280_pressure;Samples;Min_cycle;Max_cycle;Signal;HPM_P1;HPM_P2
2022/08/12 00:42:57;;;;;;;1.55;1.10;;;;;;;19.78;48.17;99401.53;4500001;31;34242;-80
2022/08/12 00:45:25;;;;;;;1.45;0.98;;;;;;;20.13;47.82;99396.34;4488173;31;34167;-80
2022/08/12 00:47:53;;;;;;;1.67;1.08;;;;;;;19.56;49.12;99396.38;4482797;32;35872;-79
2022/08/12 00:50:21;;;;;;;1.90;1.00;;;;;;;19.81;48.45;99394.31;4486450;32;34670;-78
2022/08/12 00:52:51;;;;;;;2.47;1.20;;;;;;;19.82;48.82;99400.47;4490518;31;34468;-81
2022/08/12 00:55:20;;;;;;;1.02;0.90;;;;;;;19.50;49.03;99393.09;4502112;31;33993;-80
2022/08/12 00:57:49;;;;;;;2.40;0.93;;;;;;;19.48;49.51;99402.00;4500064;31;35118;-80
2022/08/12 01:00:22;;;;;;;1.25;0.90;;;;;;;19.68;48.98;99393.16;4502529;31;35154;-79
2022/08/12 01:02:56;;;;;;;1.80;1.05;;;;;;;19.38;49.98;99395.47;4499832;31;33898;-80
2022/08/12 01:13:49;;;;;;;2.00;1.20;;;;;;;19.18;50.06;99396.34;4499893;31;33516;-80
2022/08/12 01:16:21;;;;;;;1.77;1.15;;;;;;;19.21;50.19;99389.16;4502184;31;33791;-81
2022/08/12 01:18:51;;;;;;;1.00;0.90;;;;;;;19.18;50.29;99394.56;4501389;31;35111;-80
2022/08/12 01:21:25;;;;;;;1.00;0.90;;;;;;;18.93;51.02;99394.81;4502194;31;33696;-78
2022/08/12 01:24:12;;;;;;;2.25;1.10;;;;;;;18.46;52.81;99400.31;4491961;31;34302;-80
2022/08/12 01:27:00;;;;;;;1.55;1.10;;;;;;;18.29;53.34;99403.69;4502228;31;34026;-81
2022/08/12 01:29:31;;;;;;;1.20;1.05;;;;;;;18.72;51.78;99401.84;4501101;31;34371;-81
2022/08/12 01:32:07;;;;;;;1.25;1.10;;;;;;;19.09;50.81;99401.09;4502171;31;34551;-80
2022/08/12 01:34:38;;;;;;;2.47;1.27;;;;;;;18.52;52.56;99400.06;4497511;31;33614;-80
2022/08/12 01:37:08;;;;;;;2.17;1.10;;;;;;;19.04;51.10;99400.50;4500975;31;33177;-80
2022/08/12 01:39:38;;;;;;;1.10;1.00;;;;;;;18.44;52.71;99396.91;4494378;31;34563;-80
2022/08/12 01:42:31;;;;;;;1.92;1.20;;;;;;;18.51;52.50;99393.06;4495639;31;34389;-79
2022/08/12 01:45:00;;;;;;;1.48;1.10;;;;;;;19.02;50.83;99389.13;4487592;31;33869;-78
2022/08/12 01:47:48;;;;;;;1.08;0.98;;;;;;;19.45;49.41;99386.34;4488181;31;33935;-78
2022/08/12 01:50:22;;;;;;;1.35;1.20;;;;;;;18.60;51.63;99382.16;4501852;31;35127;-78
2022/08/12 01:52:52;;;;;;;1.90;1.27;;;;;;;18.36;52.60;99386.69;4489088;31;35206;-78
2022/08/12 01:55:23;;;;;;;1.25;1.08;;;;;;;18.42;52.22;99385.56;4486046;32;33233;-78
2022/08/12 01:58:13;;;;;;;1.35;1.10;;;;;;;18.09;53.08;99383.41;4488992;31;33890;-80
2022/08/12 02:00:47;;;;;;;4.50;1.50;;;;;;;18.12;52.92;99375.37;4499954;31;35128;-81
2022/08/12 02:13:13;;;;;;;1.80;1.30;;;;;;;17.63;54.64;99381.66;4484256;31;35191;-78
2022/08/12 02:15:48;;;;;;;2.10;1.40;;;;;;;17.40;55.24;99372.03;4492653;31;34314;-79
2022/08/12 02:18:16;;;;;;;1.90;1.30;;;;;;;17.48;54.88;99366.47;4500996;31;33442;-81
2022/08/12 02:21:00;;;;;;;1.77;1.20;;;;;;;17.47;54.86;99366.50;4500366;31;33912;-80
2022/08/12 02:23:30;;;;;;;3.25;1.25;;;;;;;18.18;53.15;99364.59;4500241;31;35101;-81
2022/08/12 02:26:03;;;;;;;1.65;1.30;;;;;;;17.91;53.67;99361.28;4501890;31;35347;-80
2022/08/12 02:28:31;;;;;;;1.55;1.23;;;;;;;17.84;54.09;99355.38;4501239;31;33431;-81
2022/08/12 02:31:05;;;;;;;1.70;1.20;;;;;;;17.49;54.71;99354.16;4500696;31;34614;-81
2022/08/12 02:33:34;;;;;;;3.03;1.25;;;;;;;17.51;55.24;99362.88;4499009;31;34990;-79
2022/08/12 02:36:04;;;;;;;1.45;1.20;;;;;;;17.39;55.16;99359.78;4500309;31;35304;-81
2022/08/12 02:38:32;;;;;;;4.82;1.27;;;;;;;17.84;54.09;99360.66;4499034;31;34360;-80
2022/08/12 02:41:02;;;;;;;3.33;1.83;;;;;;;17.40;55.11;99358.88;4500874;31;34768;-81
2022/08/12 02:43:50;;;;;;;1.35;1.20;;;;;;;17.15;56.00;99355.44;4500733;31;34969;-81
2022/08/12 02:46:26;;;;;;;1.65;1.37;;;;;;;16.47;58.26;99361.31;4499609;31;34574;-81
2022/08/12 02:49:00;;;;;;;2.40;1.35;;;;;;;17.12;56.17;99348.53;4499026;31;34281;-80
2022/08/12 02:51:37;;;;;;;2.25;1.23;;;;;;;17.08;56.13;99351.31;4501470;31;33790;-81
2022/08/12 02:54:06;;;;;;;2.25;1.48;;;;;;;16.86;57.03;99349.50;4498856;31;35992;-81
2022/08/12 02:56:36;;;;;;;2.03;1.33;;;;;;;16.71;57.70;99350.84;4501027;31;34559;-78
2022/08/12 02:59:05;;;;;;;1.75;1.35;;;;;;;16.97;56.66;99347.31;4500557;31;32605;-80
2022/08/12 03:01:38;;;;;;;1.67;1.30;;;;;;;16.80;57.26;99347.03;4500329;31;33919;-78
2022/08/12 03:04:25;;;;;;;1.35;1.23;;;;;;;16.81;57.28;99349.62;4498928;31;35085;-78
2022/08/12 03:07:03;;;;;;;1.80;1.50;;;;;;;17.09;56.40;99343.38;4501492;31;34808;-79
2022/08/12 03:09:35;;;;;;;1.87;1.20;;;;;;;16.95;56.74;99332.50;4498735;31;33364;-81
2022/08/12 03:12:23;;;;;;;3.92;1.60;;;;;;;16.99;56.70;99331.47;4500444;31;33916;-78
2022/08/12 03:14:53;;;;;;;2.05;1.40;;;;;;;17.08;56.62;99338.16;4491466;31;35779;-81
2022/08/12 03:17:29;;;;;;;3.97;1.83;;;;;;;17.07;56.43;99337.31;4493648;31;36394;-81
2022/08/12 03:19:58;;;;;;;3.00;1.52;;;;;;;17.36;55.75;99336.19;4500350;31;33446;-80
2022/08/12 03:22:40;;;;;;;2.22;1.60;;;;;;;17.18;56.34;99343.03;4501289;31;34139;-80
2022/08/12 03:25:14;;;;;;;2.15;1.58;;;;;;;17.44;55.53;99341.19;4499689;31;34998;-81
2022/08/12 03:27:48;;;;;;;1.75;1.20;;;;;;;17.29;56.11;99342.62;4499252;31;34372;-78
2022/08/12 03:30:17;;;;;;;1.83;1.50;;;;;;;17.48;55.56;99342.75;4485221;32;33172;-80
2022/08/12 03:32:47;;;;;;;3.50;1.50;;;;;;;16.55;57.97;99339.16;4484604;31;33816;-78
2022/08/12 03:35:29;;;;;;;6.65;1.55;;;;;;;17.31;56.31;99343.44;4488254;31;35024;-81
2022/08/12 03:38:14;;;;;;;3.45;1.67;;;;;;;16.12;59.53;99347.63;4501401;31;35327;-81
2022/08/12 04:00:57;;;;;;;2.33;1.60;;;;;;;16.57;58.41;99351.38;4500556;31;34432;-78
2022/08/12 04:06:13;;;;;;;3.50;1.85;;;;;;;16.28;59.48;99362.88;4501585;31;34013;-81
2022/08/12 04:08:42;;;;;;;2.70;1.35;;;;;;;16.27;59.84;99361.13;4501758;31;35748;-81
2022/08/12 04:14:07;;;;;;;2.92;1.50;;;;;;;16.80;58.41;99363.69;4501961;31;33556;-81
2022/08/12 04:16:35;;;;;;;;;;;;;;;16.19;60.31;99360.56;4501846;31;34090;-78
2022/08/12 04:19:04;;;;;;;1.73;1.42;;;;;;;16.62;58.65;99362.59;4500296;31;36127;-81
2022/08/12 04:21:32;;;;;;;2.42;1.73;;;;;;;16.68;58.93;99369.37;4501842;31;34495;-81
2022/08/12 04:24:01;;;;;;;3.42;1.98;;;;;;;17.10;57.62;99363.53;4500009;31;34055;-80
2022/08/12 04:26:29;;;;;;;2.92;1.70;;;;;;;17.15;57.51;99366.81;4502587;31;34114;-80
2022/08/12 04:28:58;;;;;;;2.60;1.85;;;;;;;16.74;58.70;99370.94;4501630;31;35813;-80
2022/08/12 04:31:36;;;;;;;2.50;1.58;;;;;;;17.20;57.23;99367.50;4502414;31;35285;-80
2022/08/12 04:34:07;;;;;;;3.17;1.52;;;;;;;17.22;57.52;99377.97;4501797;31;33336;-78
2022/08/12 04:36:37;;;;;;;2.92;2.03;;;;;;;16.63;59.99;99379.19;4488356;31;32735;-81
2022/08/12 04:39:07;;;;;;;1.90;1.50;;;;;;;17.40;57.24;99374.66;4498651;31;35248;-78
2022/08/12 04:41:36;;;;;;;1.90;1.45;;;;;;;17.60;57.13;99373.88;4501600;31;34127;-78
2022/08/12 04:44:26;;;;;;;2.50;1.75;;;;;;;17.76;56.90;99383.81;4501288;31;34176;-80
2022/08/12 04:46:54;;;;;;;7.22;1.70;;;;;;;18.18;55.43;99389.16;4487747;31;34314;-81
2022/08/12 04:49:23;;;;;;;3.20;1.90;;;;;;;18.15;56.22;99391.06;4501491;31;35883;-81
2022/08/12 04:51:50;;;;;;;3.95;1.85;;;;;;;17.48;59.58;99384.88;4501159;31;34294;-78
2022/08/12 04:54:26;;;;;;;3.33;1.92;;;;;;;18.52;54.88;99394.81;4500782;31;33543;-78
2022/08/12 04:56:54;;;;;;;1.87;1.48;;;;;;;18.15;56.75;99396.34;4501710;31;34200;-80
2022/08/12 04:59:32;;;;;;;3.40;1.50;;;;;;;18.07;57.63;99394.03;4498711;31;35914;-81
2022/08/12 05:02:16;;;;;;;9.00;1.92;;;;;;;18.95;55.66;99392.97;4500540;31;34396;-78
2022/08/12 05:04:54;;;;;;;10.25;1.75;;;;;;;18.97;54.74;99392.91;4497594;31;33519;-81
2022/08/12 05:07:22;;;;;;;2.35;1.60;;;;;;;19.61;53.87;99397.03;4500625;31;34020;-78
2022/08/12 05:09:51;;;;;;;2.45;1.40;;;;;;;19.42;54.19;99402.31;4491633;31;34998;-81
2022/08/12 05:12:33;;;;;;;1.87;1.45;;;;;;;19.89;53.05;99400.09;4485456;32;34413;-81
2022/08/12 05:15:01;;;;;;;3.42;1.90;;;;;;;20.80;50.16;99400.03;4496007;31;33740;-78
2022/08/12 05:17:45;;;;;;;2.60;1.60;;;;;;;21.15;48.88;99402.62;4501308;31;34007;-78
2022/08/12 05:20:19;;;;;;;1.92;1.40;;;;;;;21.81;46.16;99401.66;4500433;31;35049;-81
2022/08/12 05:22:49;;;;;;;1.67;1.37;;;;;;;21.78;46.47;99402.72;4501241;31;35279;-80
2022/08/12 05:25:24;;;;;;;3.15;1.40;;;;;;;22.11;46.40;99401.75;4499601;31;33565;-79
2022/08/12 05:27:52;;;;;;;2.95;1.60;;;;;;;22.79;43.67;99403.09;4487036;31;34714;-78
2022/08/12 05:30:27;;;;;;;4.43;1.87;;;;;;;22.86;44.77;99409.75;4500340;31;35152;-81
2022/08/12 05:32:56;;;;;;;6.12;1.37;;;;;;;23.10;43.51;99409.22;4501043;31;34499;-79
2022/08/12 05:35:27;;;;;;;2.25;1.37;;;;;;;22.72;45.10;99407.06;4485927;31;34372;-80
2022/08/12 05:40:42;;;;;;;3.10;1.27;;;;;;;23.88;41.36;99403.47;4497162;31;33964;-78
2022/08/12 05:43:10;;;;;;;2.03;1.50;;;;;;;23.30;42.34;99399.19;4500333;31;33748;-78
2022/08/12 05:45:38;;;;;;;1.77;1.30;;;;;;;23.71;41.43;99399.22;4495069;31;32767;-81
2022/08/12 05:48:12;;;;;;;2.25;1.58;;;;;;;24.00;41.23;99402.69;4485150;32;33947;-81
2022/08/12 05:50:40;;;;;;;3.45;1.35;;;;;;;24.22;40.21;99399.44;4498834;31;34910;-82
2022/08/12 05:53:08;;;;;;;2.80;1.48;;;;;;;23.49;41.65;99402.41;4499546;31;34562;-81
2022/08/12 05:55:36;;;;;;;2.00;1.50;;;;;;;24.77;39.16;99402.88;4490754;31;218562;-80
2022/08/12 05:58:06;;;;;;;3.70;1.52;;;;;;;24.15;40.07;99405.28;4499973;31;34757;-82
2022/08/12 06:00:35;;;;;;;2.12;1.40;;;;;;;23.96;41.06;99405.63;4500640;31;35127;-82
2022/08/12 06:03:04;;;;;;;3.70;1.52;;;;;;;24.63;39.80;99405.63;4487887;31;34651;-82
2022/08/12 06:05:37;;;;;;;2.67;1.70;;;;;;;24.39;39.48;99397.50;4500910;31;33665;-78
2022/08/12 06:08:22;;;;;;;5.95;1.50;;;;;;;25.84;36.73;99398.09;4500908;31;33989;-79
2022/08/12 06:10:50;;;;;;;3.28;1.50;;;;;;;26.22;35.76;99407.75;4487932;31;35892;-82
2022/08/12 06:13:18;;;;;;;3.47;1.60;;;;;;;25.79;37.17;99405.56;4473572;31;32849;-80
2022/08/12 06:15:56;;;;;;;2.72;1.75;;;;;;;26.14;35.83;99408.34;4498498;31;34305;-79
2022/08/12 06:18:23;;;;;;;2.50;1.52;;;;;;;25.56;37.34;99400.09;4501886;31;34161;-81
2022/08/12 06:20:59;;;;;;;4.07;1.55;;;;;;;26.23;36.88;99399.66;4500557;31;35029;-79
2022/08/12 06:23:29;;;;;;;7.50;1.75;;;;;;;26.94;35.01;99401.44;4501953;31;34495;-82
2022/08/12 06:25:57;;;;;;;3.10;1.90;;;;;;;26.88;34.82;99410.81;4499431;31;33699;-80
2022/08/12 06:28:26;;;;;;;3.47;1.80;;;;;;;27.32;33.70;99405.63;4500523;31;33895;-81
2022/08/12 06:30:54;;;;;;;3.85;2.20;;;;;;;27.59;33.48;99407.94;4500748;31;34922;-81
2022/08/12 06:33:43;;;;;;;3.20;2.00;;;;;;;26.54;34.53;99408.00;4500028;31;34466;-78
2022/08/12 06:36:32;;;;;;;4.05;1.73;;;;;;;27.66;33.21;99408.28;4500757;31;33505;-82
2022/08/12 06:39:00;;;;;;;7.28;1.73;;;;;;;27.21;33.76;99411.78;4500763;31;33929;-79
2022/08/12 06:44:35;;;;;;;;;;;;;;;27.30;32.48;99408.44;4499388;31;33989;-82
2022/08/12 06:47:03;;;;;;;4.65;1.60;;;;;;;26.99;33.35;99405.47;4500563;31;33525;-83
2022/08/12 06:49:35;;;;;;;2.53;1.80;;;;;;;27.29;33.34;99409.41;4500588;31;33825;-81
2022/08/12 06:52:03;;;;;;;4.37;2.20;;;;;;;27.23;33.36;99415.19;4500332;31;34944;-82
2022/08/12 06:54:32;;;;;;;3.12;2.15;;;;;;;28.13;32.68;99404.44;4500421;31;35205;-83
2022/08/12 06:57:00;;;;;;;1.85;1.50;;;;;;;28.07;32.36;99404.06;4500395;31;33999;-82
2022/08/12 06:59:34;;;;;;;2.75;1.80;;;;;;;28.53;32.44;99403.75;4500611;31;33932;-82
2022/08/12 07:02:02;;;;;;;3.67;1.80;;;;;;;29.01;30.61;99399.69;4500113;31;35076;-82
2022/08/12 07:04:34;;;;;;;3.47;1.67;;;;;;;28.68;31.06;99411.50;4500585;31;34350;-82
2022/08/12 07:07:08;;;;;;;2.17;1.70;;;;;;;28.67;31.20;99407.13;4496376;31;34613;-82
2022/08/12 07:09:39;;;;;;;2.10;1.77;;;;;;;28.82;30.75;99403.12;4490617;31;33976;-79
2022/08/12 07:12:27;;;;;;;2.00;1.50;;;;;;;28.40;31.41;99412.97;4500175;31;34987;-79
2022/08/12 07:14:57;;;;;;;3.00;1.90;;;;;;;28.63;30.36;99411.88;4500297;31;35181;-82
2022/08/12 07:17:34;;;;;;;2.28;1.67;;;;;;;28.53;31.54;99410.94;4499219;31;33362;-82
2022/08/12 07:20:05;;;;;;;2.40;1.62;;;;;;;27.79;32.44;99406.31;4498731;31;35015;-82
2022/08/12 07:22:33;;;;;;;2.45;1.73;;;;;;;28.54;31.59;99413.53;4500317;31;36352;-83
2022/08/12 07:27:52;;;;;;;3.87;1.92;;;;;;;28.29;31.85;99408.47;4501048;31;33440;-80
2022/08/12 07:30:21;;;;;;;3.25;1.80;;;;;;;28.30;31.48;99415.56;4500385;31;33949;-83
2022/08/12 07:32:50;;;;;;;2.15;1.55;;;;;;;29.08;31.43;99416.09;4499688;31;36352;-82
2022/08/12 07:35:19;;;;;;;3.90;1.83;;;;;;;29.46;30.13;99404.72;4498123;31;35197;-81
2022/08/12 07:37:49;;;;;;;3.65;1.80;;;;;;;29.65;29.72;99420.06;4499524;31;31963;-82
2022/08/12 07:40:18;;;;;;;4.32;1.80;;;;;;;28.93;30.11;99412.94;4500338;31;34737;-80
2022/08/12 07:42:45;;;;;;;3.17;1.80;;;;;;;29.33;29.55;99408.63;4499809;31;35891;-82
2022/08/12 07:45:14;;;;;;;2.92;1.58;;;;;;;29.98;28.90;99406.44;4500295;31;35182;-82
2022/08/12 07:47:42;;;;;;;3.58;1.87;;;;;;;30.00;29.80;99412.50;4500828;31;33703;-81
2022/08/12 07:50:12;;;;;;;2.65;1.67;;;;;;;28.96;31.74;99418.03;4499469;31;34687;-80
2022/08/12 07:52:43;;;;;;;2.62;1.85;;;;;;;30.52;28.66;99413.13;4498173;31;35276;-82
2022/08/12 07:55:12;;;;;;;3.17;2.30;;;;;;;30.28;28.86;99416.19;4499860;31;34546;-82
2022/08/12 07:57:52;;;;;;;2.37;1.55;;;;;;;29.79;29.17;99415.28;4498812;31;33102;-83
2022/08/12 08:00:20;;;;;;;3.40;1.73;;;;;;;31.16;27.22;99406.22;4497963;31;33980;-80
2022/08/12 08:02:49;;;;;;;1.87;1.52;;;;;;;32.03;26.68;99408.59;4499330;31;36050;-81
2022/08/12 08:05:18;;;;;;;4.07;2.55;;;;;;;30.49;27.75;99413.41;4490217;31;34535;-79
2022/08/12 08:07:46;;;;;;;1.73;1.40;;;;;;;30.13;28.90;99418.47;4490209;31;34203;-83
2022/08/12 08:10:15;;;;;;;2.20;1.65;;;;;;;30.99;28.50;99412.34;4491044;31;34099;-83
2022/08/12 08:12:57;;;;;;;3.20;1.92;;;;;;;30.93;28.48;99415.63;4499078;31;35148;-82
2022/08/12 08:15:29;;;;;;;7.80;2.50;;;;;;;30.45;28.58;99414.69;4493434;31;34545;-83
2022/08/12 08:18:19;;;;;;;6.12;1.90;;;;;;;32.04;26.93;99413.00;4500784;31;33538;-80
2022/08/12 08:20:55;;;;;;;3.10;1.92;;;;;;;30.93;28.63;99410.25;4488387;31;33413;-82
2022/08/12 08:24:13;;;;;;;2.30;1.70;;;;;;;31.91;26.51;99408.84;4499429;31;35286;-83
2022/08/12 08:26:15;;;;;;;2.75;1.73;;;;;;;31.92;25.96;99405.13;4501729;31;34372;-81
2022/08/12 08:28:43;;;;;;;3.05;1.85;;;;;;;31.59;27.83;99411.16;4501473;31;34217;-81
2022/08/12 08:31:13;;;;;;;3.00;2.00;;;;;;;32.45;26.83;99405.31;4501670;31;33825;-81
2022/08/12 08:33:41;;;;;;;2.78;1.98;;;;;;;32.49;25.83;99404.00;4501572;31;34421;-80
2022/08/12 08:36:29;;;;;;;2.65;2.08;;;;;;;31.26;27.58;99405.34;4487018;32;33921;-77
2022/08/12 08:38:57;;;;;;;2.97;1.95;;;;;;;32.01;26.10;99405.22;4499268;31;33639;-78
2022/08/12 08:44:38;;;;;;;2.58;1.92;;;;;;;31.91;25.94;99408.00;4500832;31;36139;-80
2022/08/12 08:47:07;;;;;;;2.72;2.05;;;;;;;31.88;26.46;99406.44;4502458;31;34656;-78
2022/08/12 08:49:36;;;;;;;3.97;1.80;;;;;;;32.21;26.31;99405.94;4499926;31;33586;-79
2022/08/12 08:52:06;;;;;;;3.08;1.80;;;;;;;31.27;27.41;99401.66;4500023;31;34783;-80
2022/08/12 08:54:36;;;;;;;3.10;1.80;;;;;;;32.28;25.34;99407.06;4499765;31;36151;-80
2022/08/12 08:57:07;;;;;;;3.17;1.90;;;;;;;31.77;27.15;99406.69;4502201;31;34436;-79
2022/08/12 08:59:35;;;;;;;3.35;2.00;;;;;;;31.67;28.11;99400.50;4501708;31;33613;-80
2022/08/12 09:02:03;;;;;;;3.17;1.98;;;;;;;32.18;26.05;99399.03;4501609;31;33986;-81
2022/08/12 09:04:34;;;;;;;3.80;1.98;;;;;;;32.83;26.26;99396.03;4501429;31;34975;-81
2022/08/12 09:07:22;;;;;;;4.28;2.12;;;;;;;33.89;25.59;99385.94;4499932;31;35195;-80
2022/08/12 09:10:12;;;;;;;2.72;1.90;;;;;;;32.46;25.87;99393.56;4492863;31;33417;-78
2022/08/12 09:15:56;;;;;;;4.15;1.87;;;;;;;32.03;26.02;99385.25;4501066;31;35063;-81
2022/08/12 09:18:26;;;;;;;3.70;1.98;;;;;;;32.21;26.48;99390.66;4502364;31;33777;-80
2022/08/12 09:21:02;;;;;;;3.85;2.00;;;;;;;33.49;24.81;99379.38;4501567;31;33443;-81
2022/08/12 09:23:50;;;;;;;3.45;2.10;;;;;;;33.78;25.07;99379.84;4502157;31;33961;-80
2022/08/12 09:26:39;;;;;;;3.65;2.28;;;;;;;33.75;24.81;99374.75;4501331;31;35157;-78
2022/08/12 09:29:28;;;;;;;5.37;2.37;;;;;;;33.20;25.68;99370.66;4498737;31;34492;-80
2022/08/12 09:32:17;;;;;;;8.95;2.08;;;;;;;32.40;25.91;99372.59;4502127;31;33612;-78
2022/08/12 09:35:05;;;;;;;2.72;2.12;;;;;;;33.78;23.97;99376.28;4501316;31;34000;-79
2022/08/12 09:37:51;;;;;;;4.43;2.30;;;;;;;33.35;24.38;99373.56;4502201;31;34999;-77
2022/08/12 09:40:29;;;;;;;4.57;2.50;;;;;;;33.39;24.43;99369.56;4501353;31;35235;-80
2022/08/12 09:46:20;;;;;;;4.78;2.17;;;;;;;32.74;25.66;99352.97;4500369;31;34720;-80
2022/08/12 09:48:52;;;;;;;3.28;1.87;;;;;;;32.46;25.98;99361.22;4501968;31;35160;-80
2022/08/12 09:51:25;;;;;;;4.95;1.87;;;;;;;33.23;23.85;99350.56;4501306;31;34418;-81
2022/08/12 09:54:11;;;;;;;3.62;1.92;;;;;;;34.82;22.67;99352.34;4501672;31;33500;-77
2022/08/12 09:56:59;;;;;;;2.40;1.60;;;;;;;34.66;22.27;99350.47;4484696;31;34003;-77
2022/08/12 09:59:48;;;;;;;4.85;1.90;;;;;;;33.14;24.04;99356.94;4488821;31;34995;-79
2022/08/12 10:02:38;;;;;;;2.50;1.70;;;;;;;33.32;23.19;99351.47;4501468;31;34548;-77
2022/08/12 10:05:16;;;;;;;2.45;1.70;;;;;;;33.37;24.04;99347.28;4501160;31;34359;-79
2022/08/12 10:07:47;;;;;;;2.83;1.70;;;;;;;33.49;24.29;99350.50;4496264;31;33992;-81
2022/08/12 10:10:16;;;;;;;3.50;1.55;;;;;;;32.57;24.27;99347.47;4491655;31;35132;-80
2022/08/12 10:16:12;;;;;;;4.45;1.83;;;;;;;33.16;23.60;99345.00;4499685;31;33356;-79
2022/08/12 10:18:55;;;;;;;4.30;2.00;;;;;;;33.77;22.67;99339.47;4500828;31;34048;-81
2022/08/12 10:21:35;;;;;;;5.22;1.67;;;;;;;34.59;23.39;99335.94;4499997;31;36402;-80
2022/08/12 10:24:18;;;;;;;3.28;1.70;;;;;;;35.02;21.92;99331.16;4501041;31;35135;-81
2022/08/12 10:29:46;;;;;;;3.42;1.60;;;;;;;34.21;22.96;99332.97;4499550;31;34631;-79
2022/08/12 10:32:34;;;;;;;5.85;1.80;;;;;;;34.69;22.55;99333.91;4500903;31;35948;-80
2022/08/12 10:35:14;;;;;;;3.60;2.00;;;;;;;34.46;21.61;99334.62;4500832;31;34644;-80
2022/08/12 10:37:44;;;;;;;2.25;1.50;;;;;;;34.31;22.42;99336.31;4501696;31;33385;-80
2022/08/12 10:40:32;;;;;;;2.00;1.50;;;;;;;34.17;22.34;99335.97;4499999;31;33928;-80
2022/08/12 10:45:52;;;;;;;3.87;2.00;;;;;;;35.43;20.87;99320.16;4499464;31;34490;-80
2022/08/12 10:48:25;;;;;;;5.62;1.95;;;;;;;33.88;22.17;99328.34;4501649;31;33496;-80
2022/08/12 10:51:03;;;;;;;6.30;2.05;;;;;;;34.38;22.04;99319.25;4499425;31;34086;-78
2022/08/12 10:53:54;;;;;;;4.25;2.00;;;;;;;35.10;21.80;99320.28;4501496;31;35955;-79
2022/08/12 10:56:31;;;;;;;3.58;2.35;;;;;;;35.49;21.55;99311.31;4498671;31;34542;-80
2022/08/12 10:59:03;;;;;;;3.53;1.95;;;;;;;35.11;21.97;99319.28;4501551;31;32957;-79
2022/08/12 11:01:37;;;;;;;;;;;;;;;35.26;22.31;99314.84;4499182;31;33926;-80
2022/08/12 11:04:28;;;;;;;5.00;2.10;;;;;;;34.68;22.43;99308.72;4489814;31;36356;-81
2022/08/12 11:07:12;;;;;;;4.57;1.65;;;;;;;35.38;21.67;99303.59;4490964;31;35305;-79
2022/08/12 11:10:00;;;;;;;3.42;1.80;;;;;;;34.49;22.18;99304.53;4487014;31;33490;-77
2022/08/12 11:12:30;;;;;;;2.45;1.73;;;;;;;33.64;23.21;99307.53;4501338;31;34091;-77
2022/08/12 11:15:22;;;;;;;3.45;1.62;;;;;;;33.30;23.98;99308.44;4500437;31;34659;-80
2022/08/12 11:18:11;;;;;;;2.08;1.70;;;;;;;33.48;23.18;99312.88;4499022;31;34365;-79
2022/08/12 11:20:46;;;;;;;2.47;1.77;;;;;;;33.46;24.03;99315.72;4500402;31;34474;-80
2022/08/12 11:23:15;;;;;;;4.72;2.00;;;;;;;33.78;22.86;99306.91;4501459;31;34890;-79
2022/08/12 11:26:05;;;;;;;2.17;1.75;;;;;;;33.74;23.29;99302.00;4500223;31;35039;-77
2022/08/12 11:28:34;;;;;;;5.18;1.75;;;;;;;33.78;22.89;99292.56;4495098;31;36463;-78
2022/08/12 11:31:06;;;;;;;4.07;1.80;;;;;;;32.46;24.40;99301.91;4500348;31;33385;-79
2022/08/12 11:33:40;;;;;;;2.85;1.83;;;;;;;32.58;24.46;99284.47;4500183;31;33852;-80
2022/08/12 11:36:29;;;;;;;3.67;2.15;;;;;;;32.63;24.39;99287.56;4500071;31;36001;-77
2022/08/12 11:38:57;;;;;;;5.18;1.70;;;;;;;32.39;24.00;99304.38;4500790;31;34449;-77
2022/08/12 11:41:33;;;;;;;2.40;1.67;;;;;;;31.08;25.41;99290.47;4498184;31;32095;-78
2022/08/12 11:44:02;;;;;;;1.90;1.50;;;;;;;31.15;25.45;99291.56;4486203;31;34517;-79
2022/08/12 11:46:52;;;;;;;2.20;1.67;;;;;;;30.87;25.33;99289.84;4497204;31;36259;-79
2022/08/12 11:49:22;;;;;;;2.30;1.40;;;;;;;31.24;24.76;99289.81;4499884;31;33659;-78
2022/08/12 11:52:00;;;;;;;3.03;1.50;;;;;;;31.17;25.00;99281.50;4499789;31;33497;-79
2022/08/12 11:54:29;;;;;;;1.75;1.30;;;;;;;30.99;25.11;99285.97;4499467;31;34653;-78
2022/08/12 11:56:59;;;;;;;2.75;1.50;;;;;;;31.35;24.22;99275.28;4502711;31;36016;-80
2022/08/12 11:59:31;;;;;;;3.60;1.42;;;;;;;32.27;23.03;99287.63;4501834;31;35119;-78
2022/08/12 12:02:19;;;;;;;3.95;1.70;;;;;;;32.12;23.30;99286.50;4501164;31;33531;-77
2022/08/12 12:04:49;;;;;;;3.37;1.40;;;;;;;32.77;22.78;99278.00;4501785;31;33963;-79
2022/08/12 12:07:23;;;;;;;1.80;1.37;;;;;;;32.32;23.80;99284.47;4502686;31;35091;-80
2022/08/12 12:10:13;;;;;;;2.35;1.40;;;;;;;33.13;22.42;99287.78;4500272;31;35224;-79
2022/08/12 12:12:41;;;;;;;2.08;1.62;;;;;;;32.65;23.83;99285.56;4501471;31;33590;-79
2022/08/12 12:15:17;;;;;;;3.10;1.58;;;;;;;32.61;23.94;99286.00;4501018;31;33712;-78
2022/08/12 12:18:05;;;;;;;3.10;1.55;;;;;;;31.92;25.27;99289.31;4493163;31;36311;-80
2022/08/12 12:20:34;;;;;;;3.03;1.60;;;;;;;32.14;25.52;99279.13;4496351;31;35150;-78
2022/08/12 12:23:02;;;;;;;3.78;1.70;;;;;;;32.48;25.04;99284.56;4500502;31;33394;-79
2022/08/12 12:25:33;;;;;;;2.37;1.37;;;;;;;32.52;25.32;99279.69;4501743;31;34159;-77
2022/08/12 12:28:21;;;;;;;2.53;1.55;;;;;;;32.28;25.73;99278.53;4502526;31;35963;-79
2022/08/12 12:31:05;;;;;;;3.67;1.70;;;;;;;31.50;25.88;99283.72;4501874;31;34490;-78
2022/08/12 12:33:53;;;;;;;2.33;1.95;;;;;;;30.98;27.05;99273.53;4501768;31;34230;-79
2022/08/12 12:36:26;;;;;;;2.17;1.50;;;;;;;30.90;27.46;99273.38;4501810;31;33957;-79
2022/08/12 12:38:58;;;;;;;1.67;1.37;;;;;;;30.73;27.22;99273.19;4501627;31;36084;-79
2022/08/12 12:41:28;;;;;;;1.83;1.42;;;;;;;30.81;27.96;99273.28;4501979;31;34419;-79
2022/08/12 12:44:16;;;;;;;4.40;1.70;;;;;;;31.50;26.35;99273.81;4501682;31;33464;-80
2022/08/12 12:47:04;;;;;;;6.55;1.75;;;;;;;31.32;27.62;99260.28;4501360;31;33990;-78
2022/08/12 12:49:52;;;;;;;3.85;1.50;;;;;;;32.42;25.76;99258.25;4500665;31;35858;-78
2022/08/12 12:52:21;;;;;;;2.65;1.58;;;;;;;32.60;24.78;99252.81;4501756;31;34102;-79
2022/08/12 12:54:54;;;;;;;2.03;1.50;;;;;;;32.37;25.46;99251.63;4500717;31;33367;-79
2022/08/12 12:57:23;;;;;;;3.42;1.48;;;;;;;32.66;24.24;99251.34;4502278;31;33957;-79
2022/08/12 13:00:16;;;;;;;12.50;2.05;;;;;;;33.36;24.56;99240.31;4501441;31;36117;-79
2022/08/12 13:02:54;;;;;;;1.90;1.60;;;;;;;33.38;24.40;99243.69;4502356;31;34542;-79
2022/08/12 13:05:26;;;;;;;4.47;1.70;;;;;;;33.12;24.50;99227.56;4501114;31;34627;-78
2022/08/12 13:07:56;;;;;;;2.92;1.70;;;;;;;33.21;24.02;99233.88;4502224;31;33883;-78
2022/08/12 13:10:31;;;;;;;1.87;1.52;;;;;;;32.83;23.67;99231.53;4500723;31;35117;-79
2022/08/12 13:13:06;;;;;;;2.10;1.58;;;;;;;33.24;23.13;99228.16;4501407;31;35420;-77
2022/08/12 13:15:55;;;;;;;3.83;1.60;;;;;;;32.79;22.69;99227.47;4501354;31;33651;-78
2022/08/12 13:18:30;;;;;;;2.03;1.33;;;;;;;32.37;23.81;99224.69;4501009;31;33878;-79
2022/08/12 13:20:58;;;;;;;2.58;1.52;;;;;;;33.09;22.34;99218.97;4499779;31;36312;-79
2022/08/12 13:23:26;;;;;;;3.53;1.40;;;;;;;33.75;21.60;99223.50;4501143;31;34442;-79
2022/08/12 13:26:03;;;;;;;1.25;1.05;;;;;;;32.89;23.16;99224.63;4499921;31;34031;-78
2022/08/12 13:28:31;;;;;;;1.90;1.48;;;;;;;33.25;20.73;99217.19;4501428;31;34890;-79
2022/08/12 13:30:59;;;;;;;2.47;1.48;;;;;;;33.87;20.50;99215.06;4499718;31;34986;-77
2022/08/12 13:33:28;;;;;;;3.47;1.40;;;;;;;33.74;19.75;99216.41;4502177;31;34380;-79
2022/08/12 13:36:19;;;;;;;2.03;1.42;;;;;;;32.97;20.96;99216.59;4501192;31;33537;-79
2022/08/12 13:38:50;;;;;;;3.25;1.50;;;;;;;32.85;20.21;99212.50;4502228;31;33990;-80
2022/08/12 13:41:34;;;;;;;2.97;1.45;;;;;;;32.59;21.34;99218.78;4500410;31;35974;-78
2022/08/12 13:44:05;;;;;;;2.53;1.50;;;;;;;32.35;21.82;99221.31;4501056;31;34419;-77
2022/08/12 13:46:39;;;;;;;7.17;1.87;;;;;;;32.30;22.91;99219.94;4501208;31;34218;-78
2022/08/12 13:49:12;;;;;;;5.75;1.60;;;;;;;32.66;23.38;99209.03;4502021;31;35018;-79
2022/08/12 13:51:52;;;;;;;2.70;2.00;;;;;;;33.16;24.04;99217.31;4484909;31;35029;-78
2022/08/12 13:54:21;;;;;;;3.50;1.67;;;;;;;32.92;23.11;99208.13;4485778;31;35211;-77
2022/08/12 13:56:49;;;;;;;2.87;1.58;;;;;;;33.34;22.00;99203.69;4501628;31;33552;-79
2022/08/12 13:59:20;;;;;;;6.68;2.15;;;;;;;33.10;23.02;99212.56;4499875;31;33266;-79
2022/08/12 14:01:53;;;;;;;7.80;2.00;;;;;;;32.94;24.93;99203.41;4501381;31;34559;-78